createdAt,value
2018-11-04T00:00:32.158Z,2.91
2018-11-04T00:01:32.206Z,2.96
2018-11-04T00:02:32.128Z,3.07
2018-11-04T00:03:32.120Z,3.11
2018-11-04T00:04:32.113Z,3.11
2018-11-04T00:05:32.106Z,3.18
2018-11-04T00:06:32.145Z,3.18
2018-11-04T00:07:32.078Z,3.07
2018-11-04T00:08:32.069Z,3.12
2018-11-04T00:09:32.059Z,3.15
2018-11-04T00:10:32.090Z,3.09
2018-11-04T00:11:32.049Z,3.07
2018-11-04T00:12:32.041Z,2.97
2018-11-04T00:13:32.008Z,2.96
2018-11-04T00:14:32.001Z,2.96
2018-11-04T00:15:32.032Z,2.97
2018-11-04T00:16:32.133Z,3.00
2018-11-04T00:17:31.969Z,3.11
2018-11-04T00:18:31.972Z,2.96
2018-11-04T00:19:31.945Z,2.97
2018-11-04T00:20:31.946Z,2.97
2018-11-04T00:21:31.972Z,2.96
2018-11-04T00:22:31.918Z,3.14
2018-11-04T00:23:31.942Z,3.17
2018-11-04T00:24:31.891Z,3.17
2018-11-04T00:25:31.882Z,3.07
2018-11-04T00:26:31.877Z,3.12
2018-11-04T00:27:31.899Z,2.94
2018-11-04T00:28:31.849Z,3.12
2018-11-04T00:29:31.872Z,3.12
2018-11-04T00:30:31.873Z,3.20
2018-11-04T00:31:31.817Z,3.12
2018-11-04T00:32:31.823Z,3.14
2018-11-04T00:33:31.803Z,3.25
2018-11-04T00:34:31.795Z,3.26
2018-11-04T00:35:31.785Z,3.12
2018-11-04T00:36:31.801Z,3.22
2018-11-04T00:37:31.752Z,3.29
2018-11-04T00:38:31.740Z,3.22
2018-11-04T00:39:31.765Z,3.33
2018-11-04T00:40:31.717Z,3.27
2018-11-04T00:41:31.708Z,3.32
2018-11-04T00:42:31.733Z,3.32
2018-11-04T00:43:31.681Z,3.32
2018-11-04T00:44:31.675Z,3.29
2018-11-04T00:45:31.755Z,3.23
2018-11-04T00:46:31.703Z,3.26
2018-11-04T00:47:31.638Z,3.25
2018-11-04T00:48:31.648Z,3.25
2018-11-04T00:49:31.619Z,3.22
2018-11-04T00:50:31.618Z,3.23
2018-11-04T00:51:31.610Z,3.29
2018-11-04T00:52:31.629Z,3.25
2018-11-04T00:53:31.583Z,3.41
2018-11-04T00:54:31.564Z,3.27
2018-11-04T00:55:31.570Z,3.26
2018-11-04T00:56:31.590Z,3.29
2018-11-04T00:57:31.544Z,3.23
2018-11-04T00:58:31.533Z,3.26
2018-11-04T00:59:31.513Z,3.32
2018-11-04T01:00:31.503Z,3.29
2018-11-04T01:01:31.544Z,3.29
2018-11-04T01:02:31.521Z,3.36
2018-11-04T01:03:31.465Z,3.27
2018-11-04T01:04:31.462Z,3.37
2018-11-04T01:05:31.439Z,3.45
2018-11-04T01:06:31.436Z,3.46
2018-11-04T01:07:31.467Z,3.59
2018-11-04T01:08:31.415Z,3.55
2018-11-04T01:09:31.403Z,3.55
2018-11-04T01:10:31.404Z,3.62
2018-11-04T01:11:31.381Z,3.64
2018-11-04T01:12:31.365Z,3.69
2018-11-04T01:13:31.427Z,3.70
2018-11-04T01:14:31.347Z,3.70
2018-11-04T01:15:31.337Z,3.60
2018-11-04T01:16:31.576Z,3.54
2018-11-04T01:17:31.321Z,3.72
2018-11-04T01:18:31.303Z,3.72
2018-11-04T01:19:31.335Z,3.81
2018-11-04T01:20:31.283Z,3.81
2018-11-04T01:21:31.269Z,3.84
2018-11-04T01:22:31.261Z,3.80
2018-11-04T01:23:31.256Z,3.92
2018-11-04T01:24:31.332Z,3.88
2018-11-04T01:25:31.273Z,3.91
2018-11-04T01:26:31.217Z,3.88
2018-11-04T01:27:31.205Z,3.88
2018-11-04T01:28:31.193Z,3.88
2018-11-04T01:29:31.180Z,3.84
2018-11-04T01:30:31.286Z,4.00
2018-11-04T01:31:31.203Z,3.92
2018-11-04T01:32:31.164Z,3.94
2018-11-04T01:33:31.183Z,3.85
2018-11-04T01:34:31.125Z,3.91
2018-11-04T01:35:31.117Z,3.99
2018-11-04T01:36:31.102Z,4.02
2018-11-04T01:37:31.107Z,4.00
2018-11-04T01:38:31.096Z,4.00
2018-11-04T01:39:31.115Z,4.02
2018-11-04T01:40:31.061Z,4.08
2018-11-04T01:41:31.051Z,4.16
2018-11-04T01:42:31.042Z,4.24
2018-11-04T01:43:31.030Z,4.17
2018-11-04T01:44:31.036Z,4.08
2018-11-04T01:45:31.050Z,4.20
2018-11-04T01:46:31.150Z,4.20
2018-11-04T01:47:30.986Z,4.23
2018-11-04T01:48:30.974Z,4.27
2018-11-04T01:49:30.964Z,4.24
2018-11-04T01:50:31.000Z,4.26
2018-11-04T01:51:30.983Z,4.28
2018-11-04T01:52:30.971Z,4.23
2018-11-04T01:53:30.965Z,4.34
2018-11-04T01:54:30.908Z,4.38
2018-11-04T01:55:30.899Z,4.38
2018-11-04T01:56:30.907Z,4.30
2018-11-04T01:57:30.913Z,4.34
2018-11-04T01:58:30.865Z,4.41
2018-11-04T01:59:30.898Z,4.48
2018-11-04T02:00:30.843Z,4.51
2018-11-04T02:01:30.832Z,4.46
2018-11-04T02:02:30.830Z,4.46
2018-11-04T02:03:30.809Z,4.46
2018-11-04T02:04:30.802Z,4.51
2018-11-04T02:05:30.831Z,4.43
2018-11-04T02:06:30.776Z,4.46
2018-11-04T02:07:30.772Z,4.45
2018-11-04T02:08:30.764Z,4.57
2018-11-04T02:09:30.747Z,4.56
2018-11-04T02:10:30.735Z,4.53
2018-11-04T02:11:30.764Z,4.59
2018-11-04T02:12:30.711Z,4.63
2018-11-04T02:13:30.702Z,4.72
2018-11-04T02:14:30.703Z,4.74
2018-11-04T02:15:30.682Z,4.67
2018-11-04T02:16:30.715Z,4.71
2018-11-04T02:17:30.709Z,4.67
2018-11-04T02:18:30.642Z,4.66
2018-11-04T02:19:30.634Z,4.72
2018-11-04T02:20:30.644Z,4.72
2018-11-04T02:21:30.651Z,4.75
2018-11-04T02:22:30.604Z,4.86
2018-11-04T02:23:30.586Z,4.91
2018-11-04T02:24:30.583Z,4.82
2018-11-04T02:25:30.564Z,4.88
2018-11-04T02:26:30.603Z,4.88
2018-11-04T02:27:30.553Z,4.83
2018-11-04T02:28:30.531Z,4.79
2018-11-04T02:29:30.524Z,4.85
2018-11-04T02:30:30.519Z,4.86
2018-11-04T02:31:30.507Z,4.96
2018-11-04T02:32:30.530Z,4.96
2018-11-04T02:33:30.519Z,5.01
2018-11-04T02:34:30.516Z,4.97
2018-11-04T02:35:30.457Z,4.96
2018-11-04T02:36:30.454Z,5.00
2018-11-04T02:37:30.436Z,5.04
2018-11-04T02:38:30.432Z,4.91
2018-11-04T02:39:30.425Z,4.94
2018-11-04T02:40:30.442Z,4.98
2018-11-04T02:41:30.450Z,4.94
2018-11-04T02:42:30.377Z,4.97
2018-11-04T02:43:30.373Z,5.03
2018-11-04T02:44:30.363Z,5.03
2018-11-04T02:45:30.375Z,4.98
2018-11-04T02:46:30.602Z,5.09
2018-11-04T02:47:30.326Z,5.11
2018-11-04T02:48:30.316Z,5.07
2018-11-04T02:49:30.321Z,5.16
2018-11-04T02:50:30.292Z,5.15
2018-11-04T02:51:30.281Z,5.09
2018-11-04T02:52:30.325Z,5.12
2018-11-04T02:53:30.263Z,5.15
2018-11-04T02:54:30.253Z,5.14
2018-11-04T02:55:30.241Z,5.04
2018-11-04T02:56:30.266Z,5.14
2018-11-04T02:57:30.211Z,5.09
2018-11-04T02:58:30.214Z,5.18
2018-11-04T02:59:30.193Z,5.18
2018-11-04T03:00:30.184Z,5.09
2018-11-04T03:01:30.171Z,5.14
2018-11-04T03:02:30.221Z,5.07
2018-11-04T03:03:30.148Z,5.11
2018-11-04T03:04:30.136Z,5.12
2018-11-04T03:05:30.127Z,5.11
2018-11-04T03:06:30.165Z,5.21
2018-11-04T03:07:30.107Z,5.25
2018-11-04T03:08:30.131Z,5.22
2018-11-04T03:09:30.080Z,5.27
2018-11-04T03:10:30.067Z,5.30
2018-11-04T03:11:30.061Z,5.37
2018-11-04T03:12:30.058Z,5.36
2018-11-04T03:13:30.038Z,5.43
2018-11-04T03:14:30.070Z,5.47
2018-11-04T03:15:30.013Z,5.34
2018-11-04T03:16:30.160Z,5.44
2018-11-04T03:17:29.997Z,5.40
2018-11-04T03:18:30.020Z,5.41
2018-11-04T03:19:29.978Z,5.33
2018-11-04T03:20:30.000Z,5.44
2018-11-04T03:21:29.955Z,5.47
2018-11-04T03:22:29.937Z,5.48
2018-11-04T03:23:29.928Z,5.55
2018-11-04T03:24:30.036Z,5.52
2018-11-04T03:25:29.912Z,5.54
2018-11-04T03:26:29.934Z,5.55
2018-11-04T03:27:29.889Z,5.54
2018-11-04T03:28:29.868Z,5.57
2018-11-04T03:29:29.857Z,5.52
2018-11-04T03:30:29.895Z,5.48
2018-11-04T03:31:29.885Z,5.57
2018-11-04T03:32:29.831Z,5.51
2018-11-04T03:33:29.821Z,5.47
2018-11-04T03:34:29.805Z,5.55
2018-11-04T03:35:29.796Z,5.54
2018-11-04T03:36:29.833Z,5.66
2018-11-04T03:37:29.808Z,5.69
2018-11-04T03:38:29.765Z,5.65
2018-11-04T03:39:29.744Z,5.61
2018-11-04T03:40:29.732Z,5.73
2018-11-04T03:41:29.740Z,5.61
2018-11-04T03:42:29.722Z,5.61
2018-11-04T03:43:29.744Z,5.66
2018-11-04T03:44:29.697Z,5.66
2018-11-04T03:45:29.719Z,5.66
2018-11-04T03:46:29.733Z,5.72
2018-11-04T03:47:29.669Z,5.70
2018-11-04T03:48:29.647Z,5.69
2018-11-04T03:49:29.719Z,5.67
2018-11-04T03:50:29.625Z,5.70
2018-11-04T03:51:29.616Z,5.65
2018-11-04T03:52:29.652Z,5.67
2018-11-04T03:53:29.633Z,5.61
2018-11-04T03:54:29.579Z,5.62
2018-11-04T03:55:29.581Z,5.61
2018-11-04T03:56:29.559Z,5.59
2018-11-04T03:57:29.589Z,5.72
2018-11-04T03:58:29.581Z,5.70
2018-11-04T03:59:29.535Z,5.67
2018-11-04T04:00:29.556Z,5.77
2018-11-04T04:01:29.501Z,5.77
2018-11-04T04:02:29.493Z,5.76
2018-11-04T04:03:29.483Z,5.75
2018-11-04T04:04:29.485Z,5.79
2018-11-04T04:05:29.465Z,5.82
2018-11-04T04:06:29.490Z,5.70
2018-11-04T04:07:29.431Z,5.69
2018-11-04T04:08:29.435Z,5.76
2018-11-04T04:09:29.425Z,5.76
2018-11-04T04:10:29.398Z,5.84
2018-11-04T04:11:29.391Z,5.85
2018-11-04T04:12:29.430Z,5.87
2018-11-04T04:13:29.409Z,5.94
2018-11-04T04:14:29.365Z,5.97
2018-11-04T04:15:29.345Z,5.98
2018-11-04T04:16:29.607Z,5.98
2018-11-04T04:17:29.323Z,6.03
2018-11-04T04:18:29.313Z,5.94
2018-11-04T04:19:29.354Z,5.97
2018-11-04T04:20:29.316Z,5.98
2018-11-04T04:21:29.282Z,6.00
2018-11-04T04:22:29.265Z,5.97
2018-11-04T04:23:29.264Z,5.97
2018-11-04T04:24:29.243Z,6.12
2018-11-04T04:25:29.275Z,6.13
2018-11-04T04:26:29.232Z,6.13
2018-11-04T04:27:29.210Z,6.19
2018-11-04T04:28:29.207Z,6.13
2018-11-04T04:29:29.193Z,6.16
2018-11-04T04:30:29.184Z,6.24
2018-11-04T04:31:29.223Z,6.21
2018-11-04T04:32:29.155Z,6.38
2018-11-04T04:33:29.175Z,6.28
2018-11-04T04:34:29.134Z,6.31
2018-11-04T04:35:29.117Z,6.35
2018-11-04T04:36:29.119Z,6.35
2018-11-04T04:37:29.150Z,6.35
2018-11-04T04:38:29.090Z,6.35
2018-11-04T04:39:29.085Z,6.37
2018-11-04T04:40:29.070Z,6.35
2018-11-04T04:41:29.056Z,6.50
2018-11-04T04:42:29.092Z,6.45
2018-11-04T04:43:29.036Z,6.52
2018-11-04T04:44:29.015Z,6.46
2018-11-04T04:45:29.029Z,6.55
2018-11-04T04:46:29.190Z,6.56
2018-11-04T04:47:28.981Z,6.52
2018-11-04T04:48:29.012Z,6.47
2018-11-04T04:49:28.968Z,6.53
2018-11-04T04:50:28.959Z,6.52
2018-11-04T04:51:28.939Z,6.56
2018-11-04T04:52:28.942Z,6.57
2018-11-04T04:53:28.915Z,6.65
2018-11-04T04:54:28.959Z,6.64
2018-11-04T04:55:28.894Z,6.63
2018-11-04T04:56:28.880Z,6.61
2018-11-04T04:57:28.871Z,6.67
2018-11-04T04:58:28.872Z,6.67
2018-11-04T04:59:28.852Z,6.70
2018-11-04T05:00:28.880Z,6.74
2018-11-04T05:01:28.833Z,6.79
2018-11-04T05:02:28.812Z,6.81
2018-11-04T05:03:28.801Z,6.81
2018-11-04T05:04:28.799Z,6.81
2018-11-04T05:05:28.786Z,6.83
2018-11-04T05:06:28.810Z,6.73
2018-11-04T05:07:28.767Z,6.78
2018-11-04T05:08:28.744Z,6.83
2018-11-04T05:09:28.744Z,6.85
2018-11-04T05:10:28.726Z,6.89
2018-11-04T05:11:28.724Z,6.81
2018-11-04T05:12:28.750Z,6.85
2018-11-04T05:13:28.695Z,6.86
2018-11-04T05:14:28.680Z,6.91
2018-11-04T05:15:28.721Z,6.86
2018-11-04T05:16:28.754Z,6.85
2018-11-04T05:17:28.648Z,6.92
2018-11-04T05:18:28.644Z,6.91
2018-11-04T05:19:28.624Z,6.92
2018-11-04T05:20:28.609Z,6.89
2018-11-04T05:21:28.655Z,6.89
2018-11-04T05:22:28.589Z,6.89
2018-11-04T05:23:28.636Z,6.89
2018-11-04T05:24:28.585Z,6.92
2018-11-04T05:25:28.554Z,6.92
2018-11-04T05:26:28.541Z,6.99
2018-11-04T05:27:28.536Z,6.99
2018-11-04T05:28:28.521Z,6.99
2018-11-04T05:29:28.545Z,7.07
2018-11-04T05:30:28.547Z,6.99
2018-11-04T05:31:28.501Z,7.00
2018-11-04T05:32:28.477Z,6.96
2018-11-04T05:33:28.464Z,6.99
2018-11-04T05:34:28.494Z,6.89
2018-11-04T05:35:28.448Z,6.96
2018-11-04T05:36:28.431Z,6.97
2018-11-04T05:37:28.435Z,7.01
2018-11-04T05:38:28.552Z,7.00
2018-11-04T05:39:28.393Z,7.04
2018-11-04T05:40:28.390Z,7.01
2018-11-04T05:41:28.371Z,7.04
2018-11-04T05:42:28.360Z,7.06
2018-11-04T05:43:28.359Z,7.01
2018-11-04T05:44:28.417Z,6.99
2018-11-04T05:45:28.330Z,6.99
2018-11-04T05:46:28.623Z,6.92
2018-11-04T05:47:28.306Z,6.86
2018-11-04T05:48:28.293Z,6.89
2018-11-04T05:49:28.285Z,6.81
2018-11-04T05:50:28.321Z,6.83
2018-11-04T05:51:28.268Z,6.89
2018-11-04T05:52:28.251Z,6.89
2018-11-04T05:53:28.243Z,6.91
2018-11-04T05:54:28.224Z,6.92
2018-11-04T05:55:28.258Z,6.88
2018-11-04T05:56:28.207Z,6.86
2018-11-04T05:57:28.204Z,6.89
2018-11-04T05:58:28.181Z,7.04
2018-11-04T05:59:28.175Z,7.04
2018-11-04T06:00:28.161Z,7.00
2018-11-04T06:01:28.188Z,7.00
2018-11-04T06:02:28.133Z,7.00
2018-11-04T06:03:28.201Z,7.01
2018-11-04T06:04:28.119Z,7.01
2018-11-04T06:05:28.101Z,7.04
2018-11-04T06:06:28.092Z,7.10
2018-11-04T06:07:28.139Z,7.06
2018-11-04T06:08:28.070Z,7.10
2018-11-04T06:09:28.123Z,7.07
2018-11-04T06:10:28.054Z,7.10
2018-11-04T06:11:28.046Z,7.10
2018-11-04T06:12:28.025Z,7.07
2018-11-04T06:13:28.056Z,7.08
2018-11-04T06:14:28.001Z,7.07
2018-11-04T06:15:28.000Z,7.11
2018-11-04T06:16:28.200Z,7.16
2018-11-04T06:17:27.969Z,7.15
2018-11-04T06:18:27.956Z,7.24
2018-11-04T06:19:27.997Z,7.19
2018-11-04T06:20:27.930Z,7.08
2018-11-04T06:21:27.931Z,7.15
2018-11-04T06:22:27.913Z,7.16
2018-11-04T06:23:27.901Z,7.16
2018-11-04T06:24:27.890Z,7.04
2018-11-04T06:25:27.922Z,7.08
2018-11-04T06:26:27.861Z,7.07
2018-11-04T06:27:27.856Z,7.07
2018-11-04T06:28:27.887Z,7.11
2018-11-04T06:29:27.854Z,7.15
2018-11-04T06:30:27.830Z,7.11
2018-11-04T06:31:27.854Z,7.07
2018-11-04T06:32:27.807Z,7.11
2018-11-04T06:33:27.788Z,7.08
2018-11-04T06:34:27.791Z,7.11
2018-11-04T06:35:27.775Z,7.04
2018-11-04T06:36:27.760Z,7.07
2018-11-04T06:37:27.783Z,7.07
2018-11-04T06:38:27.728Z,7.08
2018-11-04T06:39:27.720Z,7.07
2018-11-04T06:40:27.718Z,7.10
2018-11-04T06:41:27.696Z,7.13
2018-11-04T06:42:27.685Z,7.11
2018-11-04T06:43:27.717Z,7.15
2018-11-04T06:44:27.659Z,7.19
2018-11-04T06:45:27.650Z,7.18
2018-11-04T06:46:27.774Z,7.24
2018-11-04T06:47:27.762Z,7.29
2018-11-04T06:48:27.613Z,7.18
2018-11-04T06:49:27.646Z,7.21
2018-11-04T06:50:27.642Z,7.21
2018-11-04T06:51:27.580Z,7.26
2018-11-04T06:52:27.582Z,7.31
2018-11-04T06:53:27.558Z,7.33
2018-11-04T06:54:27.587Z,7.25
2018-11-04T06:55:27.544Z,7.33
2018-11-04T06:56:27.578Z,7.29
2018-11-04T06:57:27.513Z,7.33
2018-11-04T06:58:27.512Z,7.29
2018-11-04T06:59:27.495Z,7.31
2018-11-04T07:00:27.495Z,7.40
2018-11-04T07:01:27.469Z,7.34
2018-11-04T07:02:27.507Z,7.31
2018-11-04T07:03:27.496Z,7.29
2018-11-04T07:04:27.436Z,7.39
2018-11-04T07:05:27.466Z,7.34
2018-11-04T07:06:27.417Z,7.29
2018-11-04T07:07:27.408Z,7.34
2018-11-04T07:08:27.394Z,7.29
2018-11-04T07:09:27.396Z,7.31
2018-11-04T07:10:27.371Z,7.40
2018-11-04T07:11:27.414Z,7.42
2018-11-04T07:12:27.363Z,7.40
2018-11-04T07:13:27.337Z,7.54
2018-11-04T07:14:27.333Z,7.49
2018-11-04T07:15:27.315Z,7.42
2018-11-04T07:16:27.334Z,7.49
2018-11-04T07:17:27.330Z,7.55
2018-11-04T07:18:27.292Z,7.55
2018-11-04T07:19:27.306Z,7.60
2018-11-04T07:20:27.257Z,7.68
2018-11-04T07:21:27.250Z,7.62
2018-11-04T07:22:27.233Z,7.54
2018-11-04T07:23:27.230Z,7.62
2018-11-04T07:24:27.219Z,7.60
2018-11-04T07:25:27.340Z,7.58
2018-11-04T07:26:27.197Z,7.54
2018-11-04T07:27:27.177Z,7.73
2018-11-04T07:28:27.163Z,7.61
2018-11-04T07:29:27.156Z,7.58
2018-11-04T07:30:27.143Z,7.60
2018-11-04T07:31:27.191Z,7.66
2018-11-04T07:32:27.161Z,7.62
2018-11-04T07:33:27.108Z,7.74
2018-11-04T07:34:27.093Z,7.80
2018-11-04T07:35:27.086Z,7.80
2018-11-04T07:36:27.075Z,7.74
2018-11-04T07:37:27.064Z,7.80
2018-11-04T07:38:27.096Z,7.80
2018-11-04T07:39:27.054Z,7.76
2018-11-04T07:40:27.034Z,7.87
2018-11-04T07:41:27.018Z,7.91
2018-11-04T07:42:27.006Z,7.86
2018-11-04T07:43:27.035Z,7.94
2018-11-04T07:44:27.138Z,7.99
2018-11-04T07:45:26.986Z,7.98
2018-11-04T07:46:27.231Z,8.12
2018-11-04T07:47:26.948Z,8.10
2018-11-04T07:48:26.940Z,8.13
2018-11-04T07:49:26.969Z,8.20
2018-11-04T07:50:26.919Z,8.13
2018-11-04T07:51:26.963Z,8.16
2018-11-04T07:52:26.908Z,8.14
2018-11-04T07:53:26.881Z,8.13
2018-11-04T07:54:26.912Z,8.21
2018-11-04T07:55:26.859Z,8.12
2018-11-04T07:56:26.856Z,8.16
2018-11-04T07:57:26.876Z,8.24
2018-11-04T07:58:26.829Z,8.31
2018-11-04T07:59:26.823Z,8.26
2018-11-04T08:00:26.800Z,8.28
2018-11-04T08:01:26.811Z,8.23
2018-11-04T08:02:26.784Z,8.28
2018-11-04T08:03:26.824Z,8.39
2018-11-04T08:04:26.763Z,8.41
2018-11-04T08:05:26.797Z,8.46
2018-11-04T08:06:26.736Z,8.49
2018-11-04T08:07:26.786Z,8.44
2018-11-04T08:08:26.718Z,8.46
2018-11-04T08:09:26.700Z,8.46
2018-11-04T08:10:26.697Z,8.50
2018-11-04T08:11:26.717Z,8.44
2018-11-04T08:12:26.719Z,8.37
2018-11-04T08:13:26.688Z,8.37
2018-11-04T08:14:26.653Z,8.41
2018-11-04T08:15:26.689Z,8.42
2018-11-04T08:16:26.781Z,8.42
2018-11-04T08:17:26.617Z,8.46
2018-11-04T08:18:26.615Z,8.41
2018-11-04T08:19:26.584Z,8.42
2018-11-04T08:20:26.572Z,8.49
2018-11-04T08:21:26.753Z,8.46
2018-11-04T08:22:26.594Z,8.44
2018-11-04T08:23:26.541Z,8.46
2018-11-04T08:24:26.530Z,8.53
2018-11-04T08:25:26.556Z,8.59
2018-11-04T08:26:26.514Z,8.65
2018-11-04T08:27:26.492Z,8.63
2018-11-04T08:28:26.534Z,8.71
2018-11-04T08:29:26.479Z,8.63
2018-11-04T08:30:26.479Z,8.71
2018-11-04T08:31:26.455Z,8.75
2018-11-04T08:32:26.541Z,8.77
2018-11-04T08:33:26.424Z,8.85
2018-11-04T08:34:26.457Z,8.81
2018-11-04T08:35:26.415Z,8.86
2018-11-04T08:36:26.397Z,8.93
2018-11-04T08:37:26.392Z,8.98
2018-11-04T08:38:26.421Z,8.89
2018-11-04T08:39:26.367Z,8.89
2018-11-04T08:40:26.539Z,8.96
2018-11-04T08:41:26.340Z,9.06
2018-11-04T08:42:26.331Z,9.09
2018-11-04T08:43:26.360Z,9.12
2018-11-04T08:44:26.317Z,9.01
2018-11-04T08:45:26.331Z,8.99
2018-11-04T08:46:26.353Z,8.96
2018-11-04T08:47:26.275Z,8.93
2018-11-04T08:48:26.265Z,8.99
2018-11-04T08:49:26.250Z,8.86
2018-11-04T08:50:26.300Z,8.95
2018-11-04T08:51:26.229Z,8.90
2018-11-04T08:52:26.237Z,9.04
2018-11-04T08:53:26.245Z,9.08
2018-11-04T08:54:26.196Z,9.11
2018-11-04T08:55:26.183Z,9.12
2018-11-04T08:56:26.176Z,9.15
2018-11-04T08:57:26.171Z,9.12
2018-11-04T08:58:26.186Z,9.23
2018-11-04T08:59:26.146Z,9.14
2018-11-04T09:00:26.122Z,9.23
2018-11-04T09:01:26.113Z,9.22
2018-11-04T09:02:26.099Z,9.15
2018-11-04T09:03:26.130Z,9.18
2018-11-04T09:04:26.091Z,9.18
2018-11-04T09:05:26.064Z,9.23
2018-11-04T09:06:26.085Z,9.26
2018-11-04T09:07:26.048Z,9.29
2018-11-04T09:08:26.030Z,9.27
2018-11-04T09:09:26.064Z,9.40
2018-11-04T09:10:26.022Z,9.24
2018-11-04T09:11:25.999Z,9.30
2018-11-04T09:12:26.008Z,9.37
2018-11-04T09:13:26.011Z,9.44
2018-11-04T09:14:26.047Z,9.55
2018-11-04T09:15:25.999Z,9.51
2018-11-04T09:16:26.234Z,9.59
2018-11-04T09:17:25.933Z,9.52
2018-11-04T09:18:25.928Z,9.57
2018-11-04T09:19:25.935Z,9.59
2018-11-04T09:20:25.905Z,9.63
2018-11-04T09:21:25.930Z,9.62
2018-11-04T09:22:25.963Z,9.66
2018-11-04T09:23:25.917Z,9.66
2018-11-04T09:24:25.903Z,9.69
2018-11-04T09:25:25.851Z,9.70
2018-11-04T09:26:25.918Z,9.72
2018-11-04T09:27:25.836Z,9.77
2018-11-04T09:28:25.807Z,9.78
2018-11-04T09:29:25.818Z,9.81
2018-11-04T09:30:25.788Z,9.85
2018-11-04T09:31:25.774Z,9.87
2018-11-04T09:32:25.810Z,9.90
2018-11-04T09:33:25.753Z,9.77
2018-11-04T09:34:25.746Z,9.96
2018-11-04T09:35:26.004Z,9.88
2018-11-04T09:36:25.881Z,9.80
2018-11-04T09:37:25.755Z,9.70
2018-11-04T09:38:25.743Z,9.72
2018-11-04T09:39:25.691Z,9.72
2018-11-04T09:40:25.674Z,9.73
2018-11-04T09:41:25.660Z,9.72
2018-11-04T09:42:25.651Z,9.72
2018-11-04T09:43:25.638Z,9.80
2018-11-04T09:44:25.679Z,9.87
2018-11-04T09:45:25.625Z,9.81
2018-11-04T09:46:25.799Z,9.85
2018-11-04T09:47:25.590Z,9.99
2018-11-04T09:48:25.582Z,10.01
2018-11-04T09:49:25.573Z,10.02
2018-11-04T09:50:25.596Z,10.05
2018-11-04T09:51:25.562Z,10.05
2018-11-04T09:52:25.535Z,10.06
2018-11-04T09:53:25.568Z,10.16
2018-11-04T09:54:25.521Z,10.27
2018-11-04T09:55:25.515Z,10.23
2018-11-04T09:56:25.606Z,10.20
2018-11-04T09:57:25.481Z,10.21
2018-11-04T09:58:25.481Z,10.31
2018-11-04T09:59:25.467Z,10.30
2018-11-04T10:00:25.453Z,10.18
2018-11-04T10:01:25.437Z,10.10
2018-11-04T10:02:25.475Z,10.05
2018-11-04T10:03:25.423Z,10.08
2018-11-04T10:04:25.415Z,10.03
2018-11-04T10:05:25.396Z,10.05
2018-11-04T10:06:25.376Z,9.85
2018-11-04T10:07:25.372Z,9.81
2018-11-04T10:08:25.397Z,10.03
2018-11-04T10:09:25.350Z,10.01
2018-11-04T10:10:25.341Z,10.08
2018-11-04T10:11:25.370Z,10.05
2018-11-04T10:12:25.308Z,10.08
2018-11-04T10:13:25.343Z,10.16
2018-11-04T10:14:25.355Z,10.24
2018-11-04T10:15:25.281Z,10.27
2018-11-04T10:16:25.508Z,10.24
2018-11-04T10:17:25.256Z,10.16
2018-11-04T10:18:25.301Z,10.12
2018-11-04T10:19:25.636Z,10.21
2018-11-04T10:20:25.674Z,10.30
2018-11-04T10:21:25.214Z,10.26
2018-11-04T10:22:25.212Z,10.17
2018-11-04T10:23:25.189Z,10.12
2018-11-04T10:24:25.180Z,10.20
2018-11-04T10:25:25.171Z,10.16
2018-11-04T10:26:25.194Z,10.31
2018-11-04T10:27:25.154Z,10.34
2018-11-04T10:28:25.131Z,10.31
2018-11-04T10:29:25.119Z,10.38
2018-11-04T10:30:25.244Z,10.28
2018-11-04T10:31:25.103Z,10.34
2018-11-04T10:32:25.195Z,10.43
2018-11-04T10:33:25.133Z,10.43
2018-11-04T10:34:25.074Z,10.54
2018-11-04T10:35:25.105Z,10.57
2018-11-04T10:36:25.213Z,10.72
2018-11-04T10:37:25.113Z,10.78
2018-11-04T10:38:25.030Z,10.78
2018-11-04T10:39:25.026Z,10.95
2018-11-04T10:40:25.022Z,10.93
2018-11-04T10:41:25.031Z,10.97
2018-11-04T10:42:25.036Z,10.97
2018-11-04T10:43:25.045Z,11.00
2018-11-04T10:44:24.952Z,10.95
2018-11-04T10:45:24.956Z,10.98
2018-11-04T10:46:25.242Z,11.05
2018-11-04T10:47:24.943Z,11.12
2018-11-04T10:48:24.910Z,11.12
2018-11-04T10:49:24.965Z,11.20
2018-11-04T10:50:24.887Z,11.19
2018-11-04T10:51:24.876Z,11.23
2018-11-04T10:52:24.866Z,11.28
2018-11-04T10:53:24.851Z,11.33
2018-11-04T10:54:24.842Z,11.31
2018-11-04T10:55:24.878Z,11.19
2018-11-04T10:56:24.817Z,11.23
2018-11-04T10:57:24.820Z,11.20
2018-11-04T10:58:24.798Z,11.19
2018-11-04T10:59:24.791Z,11.25
2018-11-04T11:00:24.778Z,11.34
2018-11-04T11:01:24.810Z,11.19
2018-11-04T11:02:24.752Z,11.22
2018-11-04T11:03:24.747Z,11.31
2018-11-04T11:04:24.772Z,11.16
2018-11-04T11:05:24.716Z,11.13
2018-11-04T11:06:24.743Z,11.20
2018-11-04T11:07:24.696Z,11.27
2018-11-04T11:08:24.685Z,11.27
2018-11-04T11:09:24.710Z,11.48
2018-11-04T11:10:24.665Z,11.40
2018-11-04T11:11:24.649Z,11.54
2018-11-04T11:12:24.684Z,11.43
2018-11-04T11:13:24.628Z,11.52
2018-11-04T11:14:24.620Z,11.61
2018-11-04T11:15:24.621Z,11.56
2018-11-04T11:16:24.814Z,11.62
2018-11-04T11:17:24.622Z,11.61
2018-11-04T11:18:24.572Z,11.58
2018-11-04T11:19:24.557Z,11.55
2018-11-04T11:20:24.593Z,11.58
2018-11-04T11:21:24.558Z,11.55
2018-11-04T11:22:24.557Z,11.55
2018-11-04T11:23:24.556Z,11.55
2018-11-04T11:24:24.516Z,11.74
2018-11-04T11:25:24.495Z,11.71
2018-11-04T11:26:24.480Z,11.64
2018-11-04T11:27:24.597Z,11.62
2018-11-04T11:28:24.499Z,11.58
2018-11-04T11:29:24.452Z,11.61
2018-11-04T11:30:24.475Z,11.54
2018-11-04T11:31:24.431Z,11.56
2018-11-04T11:32:24.411Z,11.59
2018-11-04T11:33:24.404Z,11.62
2018-11-04T11:34:24.393Z,11.59
2018-11-04T11:35:24.439Z,11.62
2018-11-04T11:36:24.381Z,11.73
2018-11-04T11:37:24.408Z,11.69
2018-11-04T11:38:24.344Z,11.62
2018-11-04T11:39:24.340Z,11.56
2018-11-04T11:40:24.330Z,11.64
2018-11-04T11:41:24.355Z,11.70
2018-11-04T11:42:24.310Z,11.70
2018-11-04T11:43:24.293Z,11.77
2018-11-04T11:44:24.287Z,11.87
2018-11-04T11:45:24.317Z,11.93
2018-11-04T11:46:24.383Z,12.05
2018-11-04T11:47:24.249Z,12.08
2018-11-04T11:48:24.242Z,12.13
2018-11-04T11:49:24.220Z,12.15
2018-11-04T11:50:24.258Z,11.99
2018-11-04T11:51:24.236Z,12.03
2018-11-04T11:52:24.214Z,12.23
2018-11-04T11:53:24.178Z,12.21
2018-11-04T11:54:24.164Z,12.35
2018-11-04T11:55:24.154Z,12.22
2018-11-04T11:56:24.185Z,12.26
2018-11-04T11:57:24.168Z,12.18
2018-11-04T11:58:24.125Z,12.33
2018-11-04T11:59:24.244Z,12.33
2018-11-04T12:00:24.104Z,12.36
2018-11-04T12:01:24.088Z,12.28
2018-11-04T12:02:24.155Z,12.36
2018-11-04T12:03:24.112Z,12.36
2018-11-04T12:04:24.092Z,12.43
2018-11-04T12:05:24.090Z,12.21
2018-11-04T12:06:24.037Z,12.25
2018-11-04T12:07:24.018Z,12.22
2018-11-04T12:08:24.013Z,12.28
2018-11-04T12:09:24.002Z,12.22
2018-11-04T12:10:24.034Z,12.30
2018-11-04T12:11:24.039Z,12.38
2018-11-04T12:12:23.999Z,12.36
2018-11-04T12:13:23.957Z,12.46
2018-11-04T12:14:23.940Z,12.53
2018-11-04T12:15:23.979Z,12.61
2018-11-04T12:16:23.959Z,12.65
2018-11-04T12:17:23.923Z,12.69
2018-11-04T12:18:23.895Z,12.80
2018-11-04T12:19:23.882Z,12.83
2018-11-04T12:20:23.916Z,12.96
2018-11-04T12:21:23.860Z,12.96
2018-11-04T12:22:23.854Z,12.98
2018-11-04T12:23:23.854Z,12.87
2018-11-04T12:24:23.841Z,12.90
2018-11-04T12:25:23.865Z,13.02
2018-11-04T12:26:23.803Z,13.01
2018-11-04T12:27:23.848Z,13.14
2018-11-04T12:28:23.789Z,13.05
2018-11-04T12:29:23.813Z,13.21
2018-11-04T12:30:23.815Z,13.11
2018-11-04T12:31:23.751Z,13.05
2018-11-04T12:32:23.739Z,12.99
2018-11-04T12:33:23.730Z,13.11
2018-11-04T12:34:23.715Z,13.14
2018-11-04T12:35:23.797Z,13.16
2018-11-04T12:36:23.762Z,13.20
2018-11-04T12:37:23.680Z,13.20
2018-11-04T12:38:23.676Z,13.21
2018-11-04T12:39:23.663Z,13.26
2018-11-04T12:40:23.652Z,13.20
2018-11-04T12:41:23.727Z,13.20
2018-11-04T12:42:23.669Z,13.27
2018-11-04T12:43:23.636Z,13.30
2018-11-04T12:44:23.645Z,13.29
2018-11-04T12:45:24.218Z,13.36
2018-11-04T12:46:23.826Z,13.43
2018-11-04T12:47:23.666Z,13.38
2018-11-04T12:48:23.564Z,13.43
2018-11-04T12:49:23.549Z,13.43
2018-11-04T12:50:23.549Z,13.42
2018-11-04T12:51:23.528Z,13.26
2018-11-04T12:52:23.585Z,13.43
2018-11-04T12:53:23.607Z,13.43
2018-11-04T12:54:23.492Z,13.54
2018-11-04T12:55:23.481Z,13.53
2018-11-04T12:56:23.465Z,13.54
2018-11-04T12:57:23.469Z,13.49
2018-11-04T12:58:23.446Z,13.46
2018-11-04T12:59:23.485Z,13.45
2018-11-04T13:00:23.431Z,13.57
2018-11-04T13:01:23.410Z,13.61
2018-11-04T13:02:23.443Z,13.63
2018-11-04T13:03:23.390Z,13.65
2018-11-04T13:04:23.377Z,13.67
2018-11-04T13:05:23.369Z,13.85
2018-11-04T13:06:23.409Z,13.80
2018-11-04T13:07:23.346Z,13.76
2018-11-04T13:08:23.337Z,13.71
2018-11-04T13:09:23.400Z,13.51
2018-11-04T13:10:23.310Z,13.53
2018-11-04T13:11:23.337Z,13.49